createdAt,value
2022-12-31T00:11:39.837Z,12.46
2022-12-31T00:41:39.813Z,12.21
2022-12-31T01:11:39.818Z,11.98
2022-12-31T01:30:33.345Z,12.32
2022-12-31T01:41:39.646Z,12.57
2022-12-31T02:11:39.570Z,12.72
2022-12-31T02:21:33.305Z,13.03
2022-12-31T02:33:33.303Z,13.41
2022-12-31T02:41:39.602Z,13.64
2022-12-31T03:06:33.294Z,13.95
2022-12-31T03:11:39.595Z,14.03
2022-12-31T03:27:33.283Z,13.71
2022-12-31T03:41:39.560Z,13.6
2022-12-31T03:58:33.324Z,13.94
2022-12-31T04:06:33.331Z,14.28
2022-12-31T04:11:39.523Z,14.43
2022-12-31T04:41:39.450Z,14.54
2022-12-31T05:00:33.199Z,14.85
2022-12-31T05:11:39.311Z,14.99
2022-12-31T05:33:33.155Z,15.32
2022-12-31T05:41:39.227Z,15.29
2022-12-31T06:00:33.086Z,15.61
2022-12-31T06:11:39.133Z,15.74
2022-12-31T06:41:39.066Z,15.86
2022-12-31T07:11:39.180Z,15.77
2022-12-31T07:41:39.053Z,15.94
2022-12-31T08:11:38.966Z,16.13
2022-12-31T08:41:42.591Z,16.38
2022-12-31T09:11:38.918Z,16.44
2022-12-31T09:41:38.798Z,16.5
2022-12-31T10:11:38.759Z,16.42
2022-12-31T10:36:32.780Z,16.75
2022-12-31T10:41:38.655Z,16.87
2022-12-31T11:11:38.538Z,16.96
2022-12-31T11:41:38.523Z,16.98
2022-12-31T12:11:38.339Z,16.8
2022-12-31T12:26:32.582Z,16.47
2022-12-31T12:33:32.569Z,16.16
2022-12-31T12:41:38.270Z,15.88
2022-12-31T12:47:32.460Z,15.52
2022-12-31T13:11:38.102Z,15.5
2022-12-31T13:21:32.418Z,15.81
2022-12-31T13:41:38.140Z,15.84
2022-12-31T13:59:32.358Z,16.19
2022-12-31T14:11:37.992Z,16.27
2022-12-31T14:41:37.869Z,15.97
2022-12-31T14:58:32.145Z,15.66
2022-12-31T15:11:37.757Z,15.49
2022-12-31T15:30:32.212Z,15.18
2022-12-31T15:41:37.672Z,15.17
2022-12-31T16:01:32.153Z,15.49
2022-12-31T16:11:37.613Z,15.72
2022-12-31T17:11:37.447Z,15.52
2022-12-31T17:41:37.416Z,15.43
2022-12-31T18:11:37.427Z,15.34
2022-12-31T19:41:37.277Z,15.23
2022-12-31T20:11:37.148Z,15.21
2022-12-31T20:41:31.761Z,15.52
2022-12-31T21:11:37.023Z,15.43
2022-12-31T21:41:36.998Z,15.63
2022-12-31T22:11:36.907Z,15.66
2022-12-31T22:41:36.852Z,15.91
2022-12-31T23:41:36.595Z,15.83
